< < Back
Terminal Aerodrome Forecast


Current Version              Previous Versions:   1  2  3  4  5  6  7  8  9  

Terminal Aerodrome Forecast

202
FTUS42 KGSP 301120
TAFAVL
TAF
KAVL 301120Z 3012/3112 32004KT 6SM SHRA VCTS OVC030CB
      TEMPO 3012/3013 5SM -SHRA BR BKN026
     FM301300 33006KT P6SM BKN015
     FM301600 33012G20KT P6SM SCT050
     FM301800 34013G22KT P6SM FEW250
     FM302300 32009KT P6SM FEW250
     FM310200 32005KT P6SM FEW250=



Latest METAR

718
SAUS70 KWBC 302300 RRE
MTRAVL
METAR KAVL 302254Z 34010KT 10SM CLR 16/M01 A3002 RMK AO2 SLP158
T01611006


USA.gov is the U.S. government's official web portal to all federal, state and local government web resources and services.